Terminal Aerodrome Forecast
Issued by NWS

Home | Current Version | Previous Version | Text Only | Print | Product List | Glossary On
Versions: 1 2 3 4 5 6 7 8 9 10 11 12 13 14
000
FTUS42 KMLB 172300
TAFSUA
TAF
KSUA 172337Z 1800/1824 26005KT P6SM VCSH SCT020 BKN050 BKN250
     FM180200 00000KT P6SM BKN250
      TEMPO 1809/1812 5SM BR FEW010
     FM181400 01005KT P6SM SCT020 SCT150 SCT250
     FM181900 07008KT P6SM FEW030 SCT080=

USA.gov is the U.S. government's official web portal to all federal, state and local government web resources and services.